Time;durP1;ratioP1;P1;durP2;ratioP2;P2;SDS_P1;SDS_P2;PMS_P1;PMS_P2;Temp;Humidity;BMP_temperature;BMP_pressure;BME280_temperature;BME280_humidity;BME280_pressure;Samples;Min_cycle;Max_cycle;Signal;HPM_P1;HPM_P2
2023/08/18 00:01:53;;;;;;;20.92;18.80;;;614.40;2432.00;;;;;;4946889;29;20031;-80
2023/08/18 00:04:18;;;;;;;20.65;18.48;;;614.40;2432.00;;;;;;4951098;29;20467;-80
2023/08/18 00:06:44;;;;;;;19.77;17.67;;;589.70;2432.00;;;;;;4955854;29;20027;-81
2023/08/18 00:09:10;;;;;;;20.05;18.13;;;589.70;2432.00;;;;;;4955878;29;20023;-80
2023/08/18 00:11:36;;;;;;;20.92;18.35;;;589.70;2432.00;;;;;;4956989;28;20082;-82
2023/08/18 00:14:01;;;;;;;20.30;17.80;;;589.70;2432.00;;;;;;4957184;28;20478;-82
2023/08/18 00:16:27;;;;;;;21.00;18.70;;;589.70;2432.00;;;;;;4955792;29;20093;-81
2023/08/18 00:18:53;;;;;;;21.48;18.65;;;589.30;2432.00;;;;;;4954880;28;20034;-80
2023/08/18 00:21:19;;;;;;;20.75;18.55;;;589.70;2432.00;;;;;;4956807;28;20027;-81
2023/08/18 00:23:45;;;;;;;22.95;19.67;;;589.70;2432.00;;;;;;4955398;29;20038;-79
2023/08/18 00:26:10;;;;;;;21.73;19.48;;;589.70;2432.00;;;;;;4955055;29;20027;-80
2023/08/18 00:28:37;;;;;;;23.45;18.65;;;589.60;2432.00;;;;;;4955849;28;20110;-80
2023/08/18 00:31:03;;;;;;;21.13;18.55;;;589.60;2432.00;;;;;;4954305;29;20031;-80
2023/08/18 00:33:29;;;;;;;21.33;19.05;;;589.50;2432.00;;;;;;4954510;29;20031;-79
2023/08/18 00:35:55;;;;;;;21.75;19.00;;;589.50;2432.00;;;;;;4955948;28;20027;-81
2023/08/18 00:38:20;;;;;;;22.10;19.55;;;589.50;2432.00;;;;;;4954172;29;20094;-79
2023/08/18 00:40:46;;;;;;;20.67;18.60;;;589.50;2432.00;;;;;;4954428;29;20031;-80
2023/08/18 00:43:12;;;;;;;21.27;19.27;;;589.50;2432.00;;;;;;4954289;29;20037;-80
2023/08/18 00:45:38;;;;;;;23.13;18.65;;;589.20;2432.00;;;;;;4954057;29;20031;-80
2023/08/18 00:48:04;;;;;;;21.73;18.40;;;589.40;2432.00;;;;;;4954163;29;20443;-80
2023/08/18 00:50:30;;;;;;;23.25;19.17;;;589.40;2432.00;;;;;;4953978;29;20027;-80
2023/08/18 00:52:58;;;;;;;21.83;19.50;;;589.40;2432.00;;;;;;4953911;29;20075;-82
2023/08/18 00:55:28;;;;;;;21.27;19.00;;;589.30;2432.00;;;;;;4955435;28;20051;-79
2023/08/18 00:57:58;;;;;;;22.63;19.13;;;589.40;2432.00;;;;;;4954139;29;20035;-82
2023/08/18 01:00:24;;;;;;;22.65;19.50;;;589.10;2432.00;;;;;;4953806;29;20515;-80
2023/08/18 01:02:53;;;;;;;24.55;19.40;;;589.10;2432.00;;;;;;4954063;29;20170;-80
2023/08/18 01:05:19;;;;;;;23.65;19.92;;;589.20;2432.00;;;;;;4954018;29;20061;-80
2023/08/18 01:07:47;;;;;;;22.00;19.70;;;589.10;2432.00;;;;;;4954922;28;20067;-80
2023/08/18 01:10:14;;;;;;;22.48;19.70;;;589.10;2432.00;;;;;;4955337;28;20027;-80
2023/08/18 01:12:42;;;;;;;22.20;19.95;;;589.20;2432.00;;;;;;4953560;29;20065;-81
2023/08/18 01:15:24;;;;;;;22.63;20.33;;;589.00;2432.00;;;;;;4953954;29;20048;-81
2023/08/18 01:18:01;;;;;;;22.08;19.77;;;589.00;2432.00;;;;;;4953960;29;20125;-80
2023/08/18 01:20:27;;;;;;;22.08;19.80;;;589.10;2432.00;;;;;;4953469;29;20038;-81
2023/08/18 01:23:00;;;;;;;23.70;20.67;;;589.10;2432.00;;;;;;4953681;29;20078;-81
2023/08/18 01:25:27;;;;;;;23.40;20.73;;;589.10;2432.00;;;;;;4953721;29;20341;-80
2023/08/18 01:27:55;;;;;;;23.17;20.77;;;589.10;2432.00;;;;;;4953384;29;20039;-80
2023/08/18 01:30:29;;;;;;;24.58;21.27;;;589.10;2432.00;;;;;;4954659;28;20480;-80
2023/08/18 01:33:21;;;;;;;22.48;20.17;;;588.90;2432.00;;;;;;4953581;29;20027;-80
2023/08/18 01:35:49;;;;;;;22.80;19.85;;;588.80;2432.00;;;;;;4954661;28;20059;-79
2023/08/18 01:38:16;;;;;;;24.85;20.27;;;589.10;2432.00;;;;;;4953539;29;20407;-80
2023/08/18 01:40:42;;;;;;;20.98;18.95;;;588.80;2432.00;;;;;;4952950;29;20034;-80
2023/08/18 01:43:08;;;;;;;23.27;20.10;;;564.10;2432.00;;;;;;4953443;29;20034;-80
2023/08/18 01:45:36;;;;;;;21.33;19.13;;;588.80;2432.00;;;;;;4954732;28;20024;-80
2023/08/18 01:48:02;;;;;;;22.48;19.38;;;564.10;2432.00;;;;;;4952793;29;20042;-79
2023/08/18 01:50:28;;;;;;;25.20;19.25;;;588.80;2432.00;;;;;;4954378;28;20031;-80
2023/08/18 01:52:54;;;;;;;22.42;19.90;;;564.00;2432.00;;;;;;4954706;28;20035;-79
2023/08/18 01:55:20;;;;;;;20.77;18.70;;;564.10;2432.00;;;;;;4954276;28;20110;-80
2023/08/18 01:57:45;;;;;;;26.27;19.45;;;564.10;2432.00;;;;;;4953218;29;20086;-80
2023/08/18 02:00:11;;;;;;;21.95;19.25;;;564.10;2432.00;;;;;;4953336;29;20027;-80
2023/08/18 02:02:37;;;;;;;23.17;19.33;;;564.10;2432.00;;;;;;4954037;28;20470;-82
2023/08/18 02:05:03;;;;;;;22.83;19.08;;;588.80;2432.00;;;;;;4954262;28;20031;-78
2023/08/18 02:07:29;;;;;;;22.17;17.77;;;588.80;2432.00;;;;;;4954147;28;20042;-80
2023/08/18 02:09:55;;;;;;;22.77;20.58;;;564.00;2432.00;;;;;;4952713;29;20031;-80
2023/08/18 02:12:20;;;;;;;20.70;17.42;;;563.90;2432.00;;;;;;4953196;29;20023;-80
2023/08/18 02:14:46;;;;;;;20.90;18.67;;;564.10;2432.00;;;;;;4954542;28;20042;-80
2023/08/18 02:17:13;;;;;;;20.50;18.40;;;564.10;2432.00;;;;;;4954212;28;20031;-80
2023/08/18 02:19:39;;;;;;;20.83;18.75;;;564.10;2432.00;;;;;;4953101;29;20131;-80
2023/08/18 02:22:05;;;;;;;20.25;18.08;;;564.10;2432.00;;;;;;4954676;28;20106;-80
2023/08/18 02:24:31;;;;;;;20.08;18.08;;;564.10;2432.00;;;;;;4954071;29;20027;-80
2023/08/18 02:26:57;;;;;;;23.27;18.98;;;564.10;2432.00;;;;;;4954322;28;20428;-80
2023/08/18 02:29:23;;;;;;;21.05;18.65;;;563.90;2432.00;;;;;;4952931;29;20023;-80
2023/08/18 02:31:48;;;;;;;20.92;18.70;;;563.90;2432.00;;;;;;4952748;29;20042;-81
2023/08/18 02:34:14;;;;;;;21.73;19.63;;;563.90;2432.00;;;;;;4954334;28;20031;-79
2023/08/18 02:36:40;;;;;;;22.67;18.63;;;563.90;2432.00;;;;;;4952702;29;20364;-80
2023/08/18 02:39:06;;;;;;;21.02;18.83;;;563.90;2432.00;;;;;;4954327;28;20035;-81
2023/08/18 02:41:32;;;;;;;22.08;19.88;;;563.90;2432.00;;;;;;4954500;28;20034;-81
2023/08/18 02:43:58;;;;;;;21.10;19.10;;;563.90;2432.00;;;;;;4956343;29;20027;-81
2023/08/18 02:46:24;;;;;;;23.15;19.55;;;563.90;2432.00;;;;;;4956478;29;20035;-80
2023/08/18 02:48:49;;;;;;;20.05;18.08;;;563.80;2432.00;;;;;;4956336;29;20039;-80
2023/08/18 02:51:15;;;;;;;21.88;18.88;;;563.90;2432.00;;;;;;4955965;29;20054;-79
2023/08/18 02:53:42;;;;;;;20.65;18.45;;;563.90;2432.00;;;;;;4957443;28;20027;-81
2023/08/18 02:56:08;;;;;;;25.05;21.15;;;563.90;2432.00;;;;;;4956287;29;20027;-79
2023/08/18 02:58:34;;;;;;;21.80;19.50;;;563.90;2432.00;;;;;;4957370;28;20086;-80
2023/08/18 03:01:05;;;;;;;21.65;18.58;;;563.90;2432.00;;;;;;4957612;28;20023;-80
2023/08/18 03:03:30;;;;;;;20.45;18.35;;;564.00;2432.00;;;;;;4957110;28;20435;-81
2023/08/18 03:06:04;;;;;;;19.88;17.27;;;564.00;2432.00;;;;;;4956021;29;20035;-81
2023/08/18 03:08:30;;;;;;;23.13;19.20;;;564.10;2432.00;;;;;;4955756;29;20071;-80
2023/08/18 03:11:00;;;;;;;20.73;18.63;;;563.90;2432.00;;;;;;4957536;28;20037;-81
2023/08/18 03:13:26;;;;;;;20.60;18.58;;;563.70;2432.00;;;;;;4955754;29;20093;-80
2023/08/18 03:15:53;;;;;;;20.58;18.45;;;563.80;2432.00;;;;;;4955953;29;20027;-80
2023/08/18 03:18:18;;;;;;;21.60;19.20;;;563.70;2432.00;;;;;;4957280;29;20046;-79
2023/08/18 03:20:48;;;;;;;21.23;19.02;;;563.70;2432.00;;;;;;4955796;29;20027;-79
2023/08/18 03:23:15;;;;;;;21.92;18.55;;;563.60;2432.00;;;;;;4957454;28;20027;-80
2023/08/18 03:25:42;;;;;;;24.05;19.38;;;563.50;2432.00;;;;;;4956572;28;20019;-80
2023/08/18 03:28:08;;;;;;;23.13;18.92;;;563.60;2432.00;;;;;;4955708;29;20456;-81
2023/08/18 03:30:40;;;;;;;20.92;16.98;;;563.60;2432.00;;;;;;4955730;29;20027;-81
2023/08/18 03:33:06;;;;;;;;;;;563.60;2432.00;;;;;;4955960;29;20027;-80
2023/08/18 03:35:35;;;;;;;21.23;18.40;;;563.60;2432.00;;;;;;4955777;29;19953;-80
2023/08/18 03:38:02;;;;;;;21.95;18.45;;;563.60;2432.00;;;;;;4955778;29;20082;-81
2023/08/18 03:40:28;;;;;;;22.42;17.75;;;563.40;2432.00;;;;;;4956411;28;20058;-80
2023/08/18 03:42:53;;;;;;;21.08;18.77;;;563.20;2432.00;;;;;;4955702;29;20495;-79
2023/08/18 03:45:19;;;;;;;22.70;18.60;;;538.50;2406.40;;;;;;4957805;28;20024;-79
2023/08/18 03:47:45;;;;;;;21.55;17.92;;;563.30;2432.00;;;;;;4958346;28;20031;-81
2023/08/18 03:50:11;;;;;;;20.92;18.80;;;563.40;2432.00;;;;;;4958310;28;20379;-78
2023/08/18 03:52:37;;;;;;;20.20;18.05;;;538.50;2406.40;;;;;;4955350;28;20109;-80
2023/08/18 03:55:04;;;;;;;21.52;19.23;;;563.40;2432.00;;;;;;4954817;29;20035;-79
2023/08/18 03:57:30;;;;;;;21.63;18.48;;;563.20;2432.00;;;;;;4955343;29;20094;-80
2023/08/18 03:59:56;;;;;;;27.38;18.23;;;563.40;2432.00;;;;;;4956521;28;20102;-79
2023/08/18 04:02:23;;;;;;;18.95;16.98;;;563.40;2432.00;;;;;;4956179;28;20118;-78
2023/08/18 04:04:48;;;;;;;18.98;16.95;;;563.40;2432.00;;;;;;4955242;29;20061;-80
2023/08/18 04:07:14;;;;;;;21.02;17.45;;;563.40;2432.00;;;;;;4954813;29;20058;-79
2023/08/18 04:09:40;;;;;;;18.75;16.77;;;563.20;2432.00;;;;;;4956109;28;20023;-79
2023/08/18 04:12:06;;;;;;;19.98;16.95;;;563.40;2432.00;;;;;;4956328;28;20031;-79
2023/08/18 04:14:32;;;;;;;19.77;16.45;;;563.30;2432.00;;;;;;4970799;28;20035;-81
2023/08/18 04:16:58;;;;;;;18.25;16.35;;;563.40;2432.00;;;;;;4954880;29;20777;-77
2023/08/18 04:19:24;;;;;;;18.38;16.48;;;563.40;2432.00;;;;;;4955891;28;20118;-77
2023/08/18 04:21:50;;;;;;;21.95;16.90;;;563.40;2432.00;;;;;;4955656;28;20483;-78
2023/08/18 04:24:16;;;;;;;19.05;17.23;;;563.30;2432.00;;;;;;4954951;29;20031;-77
2023/08/18 04:26:42;;;;;;;19.02;16.88;;;563.20;2432.00;;;;;;4955923;28;20063;-76
2023/08/18 04:29:07;;;;;;;19.38;17.27;;;563.30;2432.00;;;;;;4954421;29;20035;-78
2023/08/18 04:31:33;;;;;;;19.83;17.63;;;563.40;2432.00;;;;;;4954660;29;20399;-78
2023/08/18 04:33:59;;;;;;;20.63;17.52;;;563.40;2432.00;;;;;;4954582;29;20027;-77
2023/08/18 04:36:25;;;;;;;21.88;17.73;;;563.50;2432.00;;;;;;4954161;29;20050;-77
2023/08/18 04:38:51;;;;;;;19.42;17.58;;;563.50;2432.00;;;;;;4954480;29;20122;-80
2023/08/18 04:41:17;;;;;;;22.13;17.83;;;563.40;2432.00;;;;;;4955836;28;20035;-80
2023/08/18 04:43:42;;;;;;;20.40;18.38;;;563.40;2432.00;;;;;;4954064;29;20031;-77
2023/08/18 04:46:08;;;;;;;28.20;18.55;;;563.40;2432.00;;;;;;4954374;29;20027;-78
2023/08/18 04:48:34;;;;;;;20.23;17.98;;;563.30;2432.00;;;;;;4954251;29;20527;-77
2023/08/18 04:51:00;;;;;;;21.52;19.23;;;563.20;2432.00;;;;;;4953681;29;20051;-77
2023/08/18 04:53:26;;;;;;;22.65;19.92;;;563.20;2432.00;;;;;;4954220;29;20077;-77
2023/08/18 04:55:52;;;;;;;22.25;19.30;;;563.30;2432.00;;;;;;4954325;29;20435;-77
2023/08/18 04:58:18;;;;;;;22.35;20.08;;;563.30;2432.00;;;;;;4953856;29;20082;-76
2023/08/18 05:00:44;;;;;;;22.08;19.73;;;563.40;2432.00;;;;;;4953985;29;20023;-77
2023/08/18 05:03:11;;;;;;;27.25;18.85;;;563.40;2432.00;;;;;;4955297;28;20447;-76
2023/08/18 05:06:04;;;;;;;23.65;20.77;;;563.50;2432.00;;;;;;4953508;28;20481;-76
2023/08/18 05:08:33;;;;;;;25.17;21.33;;;563.50;2432.00;;;;;;4944093;29;20047;-77
2023/08/18 05:11:11;;;;;;;23.40;20.90;;;563.40;2432.00;;;;;;4955105;28;20038;-76
2023/08/18 05:13:39;;;;;;;22.75;20.27;;;563.40;2432.00;;;;;;4953911;29;20407;-77
2023/08/18 05:16:05;;;;;;;24.80;20.15;;;563.30;2432.00;;;;;;4953866;29;20051;-77
2023/08/18 05:18:32;;;;;;;26.00;19.38;;;563.40;2432.00;;;;;;4953468;29;20055;-77
2023/08/18 05:20:58;;;;;;;25.02;19.13;;;563.40;2432.00;;;;;;4955026;28;20081;-77
2023/08/18 05:23:25;;;;;;;20.50;18.30;;;563.50;2432.00;;;;;;4953649;29;20027;-79
2023/08/18 05:25:54;;;;;;;30.88;19.55;;;563.40;2432.00;;;;;;4953267;29;20031;-77
2023/08/18 05:28:21;;;;;;;23.20;17.58;;;563.40;2432.00;;;;;;4953395;29;20039;-79
2023/08/18 05:30:52;;;;;;;22.65;18.33;;;563.50;2432.00;;;;;;4953460;29;20054;-80
2023/08/18 05:33:18;;;;;;;27.88;18.73;;;563.50;2432.00;;;;;;4952978;29;20027;-79
2023/08/18 05:35:44;;;;;;;23.15;17.50;;;563.50;2432.00;;;;;;4953366;29;20142;-78
2023/08/18 05:38:12;;;;;;;24.70;17.77;;;563.60;2432.00;;;;;;4953251;29;20543;-78
2023/08/18 05:40:44;;;;;;;27.67;18.40;;;563.70;2432.00;;;;;;4954189;28;20475;-77
2023/08/18 05:43:12;;;;;;;25.20;18.70;;;563.60;2432.00;;;;;;4953605;29;20463;-79
2023/08/18 05:45:38;;;;;;;19.52;17.52;;;563.60;2432.00;;;;;;4953292;29;20027;-81
2023/08/18 05:48:05;;;;;;;26.27;18.73;;;563.70;2432.00;;;;;;4953323;29;20039;-79
2023/08/18 05:50:32;;;;;;;22.17;18.30;;;563.70;2432.00;;;;;;4953051;29;20031;-80
2023/08/18 05:52:58;;;;;;;21.88;17.50;;;564.10;2432.00;;;;;;4953225;29;20125;-79
2023/08/18 05:55:24;;;;;;;20.27;17.67;;;563.90;2432.00;;;;;;4953377;29;20123;-79
2023/08/18 05:57:51;;;;;;;21.67;18.40;;;564.00;2432.00;;;;;;4953514;29;20166;-78
2023/08/18 06:00:18;;;;;;;20.08;18.00;;;564.00;2432.00;;;;;;4952989;29;20093;-79
2023/08/18 06:02:44;;;;;;;19.80;17.67;;;564.10;2432.00;;;;;;4954602;28;20019;-79
2023/08/18 06:05:11;;;;;;;20.50;18.02;;;588.80;2432.00;;;;;;4954558;29;20027;-80
2023/08/18 06:07:39;;;;;;;24.17;18.52;;;588.90;2432.00;;;;;;4954430;28;20091;-80
2023/08/18 06:10:06;;;;;;;22.15;18.65;;;588.90;2432.00;;;;;;4953118;29;20030;-80
2023/08/18 06:12:32;;;;;;;23.17;19.13;;;588.90;2432.00;;;;;;4953146;29;20027;-79
2023/08/18 06:14:58;;;;;;;21.42;18.27;;;588.90;2432.00;;;;;;4952812;28;20039;-80
2023/08/18 06:17:24;;;;;;;25.10;18.75;;;589.00;2432.00;;;;;;4956148;29;20035;-77
2023/08/18 06:19:49;;;;;;;25.30;18.90;;;589.10;2432.00;;;;;;4957022;29;20027;-78
2023/08/18 06:22:15;;;;;;;20.52;17.63;;;589.20;2432.00;;;;;;4956670;29;20035;-80
2023/08/18 06:24:41;;;;;;;25.35;17.50;;;589.30;2432.00;;;;;;4957008;29;20094;-79
2023/08/18 06:27:07;;;;;;;21.05;18.17;;;589.30;2432.00;;;;;;4956843;29;20054;-80
2023/08/18 06:29:33;;;;;;;22.45;18.08;;;589.40;2432.00;;;;;;4956645;29;20383;-80
2023/08/18 06:31:58;;;;;;;20.55;18.40;;;589.50;2432.00;;;;;;4956746;29;20034;-82
2023/08/18 06:34:24;;;;;;;21.98;19.45;;;589.60;2432.00;;;;;;4958099;29;20031;-80
2023/08/18 06:36:51;;;;;;;26.58;19.42;;;589.70;2432.00;;;;;;4956397;29;20531;-80
2023/08/18 06:39:17;;;;;;;21.42;19.23;;;589.70;2432.00;;;;;;4956734;29;20039;-81
2023/08/18 06:41:43;;;;;;;20.92;18.73;;;614.40;2432.00;;;;;;4956274;29;20111;-80
2023/08/18 06:44:09;;;;;;;27.70;20.00;;;614.50;2432.00;;;;;;4957882;29;20034;-81
2023/08/18 06:46:35;;;;;;;24.23;19.50;;;614.70;2432.00;;;;;;4956496;29;20027;-80
2023/08/18 06:49:02;;;;;;;28.38;19.20;;;614.80;2432.00;;;;;;4956164;29;20130;-81
2023/08/18 06:51:28;;;;;;;22.13;18.10;;;615.00;2432.00;;;;;;4956246;29;20051;-81
2023/08/18 06:53:54;;;;;;;21.00;18.65;;;615.20;2432.00;;;;;;4957636;29;20054;-82
2023/08/18 06:56:20;;;;;;;21.83;18.20;;;615.20;2432.00;;;;;;4956080;29;20114;-81
2023/08/18 06:58:45;;;;;;;21.50;18.40;;;615.30;2432.00;;;;;;4956406;29;20111;-82
2023/08/18 07:01:11;;;;;;;20.52;18.42;;;615.30;2432.00;;;;;;4956183;29;20070;-81
2023/08/18 07:03:37;;;;;;;20.75;18.60;;;615.30;2432.00;;;;;;4955826;29;20031;-81
2023/08/18 07:06:03;;;;;;;19.80;17.80;;;640.00;2432.00;;;;;;4956259;29;20035;-80
2023/08/18 07:08:29;;;;;;;20.45;17.92;;;640.20;2432.00;;;;;;4972224;28;20040;-82
2023/08/18 07:10:55;;;;;;;21.40;19.17;;;;;;;;;;4955918;29;20027;-82
2023/08/18 07:13:21;;;;;;;21.63;19.35;;;640.50;2432.00;;;;;;4956984;29;20461;-81
2023/08/18 07:15:48;;;;;;;21.25;19.08;;;640.70;2432.00;;;;;;4956076;29;20039;-81
2023/08/18 07:18:14;;;;;;;23.70;18.83;;;640.60;2432.00;;;;;;4956796;28;20034;-82
2023/08/18 07:20:42;;;;;;;21.40;17.92;;;640.90;2432.00;;;;;;4955976;29;20387;-81
2023/08/18 07:23:08;;;;;;;24.25;19.48;;;665.60;2432.00;;;;;;4971998;28;20035;-81
2023/08/18 07:25:34;;;;;;;24.88;18.48;;;665.70;2432.00;;;;;;4955550;29;20034;-80
2023/08/18 07:28:00;;;;;;;19.88;17.67;;;666.00;2432.00;;;;;;4956914;28;20122;-80
2023/08/18 07:30:26;;;;;;;19.65;17.55;;;666.00;2432.00;;;;;;4955543;29;20123;-78
2023/08/18 07:32:54;;;;;;;17.98;16.05;;;665.70;2432.00;;;;;;4955754;29;20498;-78
2023/08/18 07:35:20;;;;;;;18.25;15.88;;;666.00;2432.00;;;;;;4955650;29;20037;-78
2023/08/18 07:37:46;;;;;;;18.65;16.52;;;666.20;2432.00;;;;;;4956414;28;20105;-78
2023/08/18 07:40:12;;;;;;;24.85;16.77;;;666.30;2432.00;;;;;;4956545;29;20101;-78
2023/08/18 07:42:39;;;;;;;18.00;15.95;;;691.20;2432.00;;;;;;4956975;28;20031;-79
2023/08/18 07:45:06;;;;;;;21.38;17.17;;;691.30;2432.00;;;;;;4955424;29;20024;-77
2023/08/18 07:47:32;;;;;;;18.85;15.90;;;691.30;2432.00;;;;;;4956373;28;20032;-78
2023/08/18 07:49:58;;;;;;;19.02;17.00;;;691.60;2432.00;;;;;;4946735;28;20042;-78
2023/08/18 07:52:24;;;;;;;17.48;15.00;;;691.70;2432.00;;;;;;4935825;29;20412;-77
2023/08/18 07:54:50;;;;;;;22.08;16.48;;;691.80;2432.00;;;;;;4937252;29;20034;-78
2023/08/18 07:57:16;;;;;;;22.95;15.77;;;691.90;2432.00;;;;;;4935472;29;20098;-78
2023/08/18 07:59:42;;;;;;;20.08;15.13;;;691.80;2432.00;;;;;;4934988;29;20055;-79
2023/08/18 08:02:08;;;;;;;19.70;16.25;;;692.00;2432.00;;;;;;4936377;29;20095;-79
2023/08/18 08:04:34;;;;;;;17.15;14.85;;;692.10;2432.00;;;;;;4935637;29;20028;-79
2023/08/18 08:06:59;;;;;;;20.23;16.73;;;716.80;2432.00;;;;;;4935495;29;20490;-78
2023/08/18 08:09:26;;;;;;;17.08;12.77;;;716.90;2432.00;;;;;;4936508;29;20478;-78
2023/08/18 08:11:52;;;;;;;14.10;11.73;;;716.90;2432.00;;;;;;4937424;29;20024;-78
2023/08/18 08:14:19;;;;;;;18.38;10.93;;;717.20;2432.00;;;;;;4954678;28;20028;-78
2023/08/18 08:16:45;;;;;;;13.80;10.90;;;717.20;2432.00;;;;;;4936302;29;20032;-78
2023/08/18 08:19:13;;;;;;;15.43;10.90;;;717.40;2432.00;;;;;;4935499;29;20028;-78
2023/08/18 08:21:40;;;;;;;16.17;9.40;;;717.30;2432.00;;;;;;4935903;29;20036;-81
2023/08/18 08:24:07;;;;;;;12.27;9.75;;;717.60;2432.00;;;;;;4936128;29;20028;-81
2023/08/18 08:26:34;;;;;;;13.18;10.30;;;717.70;2432.00;;;;;;4941521;28;20023;-82
2023/08/18 08:29:00;;;;;;;14.90;10.60;;;717.70;2432.00;;;;;;4936480;29;20043;-83
2023/08/18 08:31:26;;;;;;;12.35;9.00;;;742.40;2432.00;;;;;;4936566;29;20123;-81
2023/08/18 08:33:51;;;;;;;10.40;8.10;;;742.50;2432.00;;;;;;4937597;29;20434;-82
2023/08/18 08:36:17;;;;;;;12.93;8.82;;;742.60;2432.00;;;;;;4936537;29;20039;-81
2023/08/18 08:38:43;;;;;;;11.25;9.30;;;742.80;2432.00;;;;;;4936385;29;20027;-81
2023/08/18 08:41:09;;;;;;;13.30;8.60;;;742.90;2432.00;;;;;;4946158;29;20046;-82
2023/08/18 08:43:35;;;;;;;13.45;9.98;;;743.00;2432.00;;;;;;4972491;28;20027;-85
2023/08/18 08:46:01;;;;;;;14.95;11.73;;;742.90;2432.00;;;;;;4955124;29;20038;-82
2023/08/18 08:48:34;;;;;;;12.77;9.07;;;743.10;2432.00;;;;;;4954993;29;20522;-84
2023/08/18 08:51:04;;;;;;;12.40;9.45;;;768.10;2432.00;;;;;;4955517;29;20059;-82
2023/08/18 08:53:39;;;;;;;13.15;10.73;;;768.00;2432.00;;;;;;4957425;29;20019;-84
2023/08/18 08:56:07;;;;;;;14.13;11.95;;;;;;;;;;4971336;28;20089;-83
2023/08/18 08:58:34;;;;;;;16.85;14.50;;;768.50;2432.00;;;;;;4955597;29;20070;-83
2023/08/18 09:01:01;;;;;;;18.35;10.82;;;768.40;2432.00;;;;;;4956956;28;20050;-86
2023/08/18 09:03:30;;;;;;;15.50;11.90;;;768.40;2432.00;;;;;;4971776;28;20059;-85
2023/08/18 09:05:56;;;;;;;11.32;10.18;;;768.50;2432.00;;;;;;4957034;28;20034;-83
2023/08/18 09:08:22;;;;;;;12.45;11.15;;;768.40;2432.00;;;;;;4955000;29;20139;-85
2023/08/18 09:10:48;;;;;;;16.00;10.80;;;768.50;2432.00;;;;;;4955202;29;20055;-84
2023/08/18 09:13:14;;;;;;;9.82;8.43;;;768.60;2432.00;;;;;;4971528;28;20487;-84
2023/08/18 09:15:47;;;;;;;14.85;10.90;;;768.80;2432.00;;;;;;4956354;28;20031;-84
2023/08/18 09:18:13;;;;;;;15.82;10.43;;;768.90;2432.00;;;;;;4971500;28;20027;-84
2023/08/18 09:20:40;;;;;;;11.70;10.13;;;768.90;2432.00;;;;;;4971316;28;20030;-87
2023/08/18 09:23:06;;;;;;;9.50;8.50;;;768.90;2432.00;;;;;;4971020;28;20089;-82
2023/08/18 09:25:34;;;;;;;15.13;8.50;;;793.80;2432.00;;;;;;4955162;29;20053;-83
2023/08/18 09:28:03;;;;;;;12.23;8.25;;;793.80;2432.00;;;;;;4955057;29;20039;-83
2023/08/18 09:30:30;;;;;;;7.60;6.53;;;;;;;;;;4955896;28;20027;-84
2023/08/18 09:32:56;;;;;;;12.93;7.22;;;;;;;;;;4955043;29;20125;-83
2023/08/18 09:35:22;;;;;;;9.18;7.60;;;794.00;2432.00;;;;;;4954987;29;20114;-84
2023/08/18 09:37:55;;;;;;;10.63;7.93;;;794.10;2432.00;;;;;;4954865;29;20549;-84
2023/08/18 09:40:21;;;;;;;11.10;9.32;;;794.20;2432.00;;;;;;4954925;29;20169;-83
2023/08/18 09:42:47;;;;;;;8.02;6.40;;;794.30;2432.00;;;;;;4954944;29;20063;-83
2023/08/18 09:45:13;;;;;;;8.57;6.55;;;794.30;2432.00;;;;;;4954637;29;20118;-85
2023/08/18 09:47:42;;;;;;;10.70;6.57;;;794.50;2406.40;;;;;;4955081;29;20031;-83
2023/08/18 09:50:10;;;;;;;10.30;7.43;;;794.50;2355.20;;;;;;4954811;28;20459;-83
2023/08/18 09:52:41;;;;;;;9.52;8.05;;;819.20;2380.80;;;;;;4954234;29;20055;-81
2023/08/18 09:55:12;;;;;;;8.60;5.47;;;819.30;2355.20;;;;;;4956056;28;20039;-85
2023/08/18 09:57:46;;;;;;;7.25;6.18;;;819.40;2329.60;;;;;;4954546;29;20475;-82
2023/08/18 10:00:12;;;;;;;9.93;6.32;;;819.60;2278.40;;;;;;4956016;29;20032;-83
2023/08/18 10:02:43;;;;;;;7.85;5.68;;;819.70;2252.80;;;;;;4955318;29;20074;-82
2023/08/18 10:05:09;;;;;;;8.02;5.80;;;819.90;2201.60;;;;;;4955467;28;20019;-84
2023/08/18 10:07:37;;;;;;;8.50;5.63;;;819.80;2227.20;;;;;;4954440;29;20436;-85
2023/08/18 10:10:03;;;;;;;12.52;7.00;;;819.80;2252.80;;;;;;4954481;29;20082;-83
2023/08/18 10:12:29;;;;;;;9.30;6.30;;;819.90;2252.80;;;;;;4955394;28;20111;-82
2023/08/18 10:14:56;;;;;;;8.88;5.93;;;820.10;2201.60;;;;;;4954487;29;20119;-85
2023/08/18 10:17:24;;;;;;;8.88;6.13;;;845.40;2227.20;;;;;;4954461;29;20510;-82
2023/08/18 10:19:55;;;;;;;9.00;6.15;;;845.00;2201.60;;;;;;4955249;28;20031;-82
2023/08/18 10:22:26;;;;;;;9.35;5.55;;;845.00;2176.00;;;;;;4954511;29;20027;-81
2023/08/18 10:24:53;;;;;;;9.40;5.15;;;845.10;2176.00;;;;;;4955645;28;20027;-82
2023/08/18 10:27:28;;;;;;;9.75;6.20;;;845.00;2176.00;;;;;;4954056;29;20416;-82
2023/08/18 10:30:07;;;;;;;9.13;5.35;;;844.90;2176.00;;;;;;4955623;29;20027;-83
2023/08/18 10:32:33;;;;;;;15.55;9.63;;;845.20;2150.40;;;;;;4954418;29;20034;-82
2023/08/18 10:35:22;;;;;;;12.93;11.50;;;845.40;2150.40;;;;;;4954289;29;20032;-82
2023/08/18 10:37:52;;;;;;;11.60;10.40;;;845.60;2099.20;;;;;;4970378;28;20478;-80
2023/08/18 10:40:40;;;;;;;7.00;5.03;;;845.70;2073.60;;;;;;4969594;28;20034;-83
2023/08/18 10:43:09;;;;;;;8.48;6.38;;;845.60;2022.40;;;;;;4955410;28;20078;-81
2023/08/18 10:45:35;;;;;;;6.53;4.97;;;845.70;2073.60;;;;;;4954067;29;20463;-80
2023/08/18 10:48:03;;;;;;;8.15;6.03;;;845.70;2048.00;;;;;;4953811;29;20382;-82
2023/08/18 10:50:31;;;;;;;10.15;5.55;;;845.70;2073.60;;;;;;4953943;29;20033;-82
2023/08/18 10:52:57;;;;;;;6.85;5.18;;;870.60;2073.60;;;;;;4955814;28;20030;-81
2023/08/18 10:55:24;;;;;;;9.98;5.22;;;870.70;2022.40;;;;;;4953887;29;20028;-82
2023/08/18 10:57:50;;;;;;;8.77;7.50;;;870.90;1996.80;;;;;;4955486;29;20032;-83
2023/08/18 11:00:20;;;;;;;8.57;4.93;;;870.90;1996.80;;;;;;4954076;29;20114;-77
2023/08/18 11:02:49;;;;;;;9.52;5.88;;;871.30;1996.80;;;;;;4955443;28;20047;-80
2023/08/18 11:05:22;;;;;;;11.65;5.10;;;871.20;1996.80;;;;;;4958810;28;20024;-82
2023/08/18 11:07:50;;;;;;;11.65;6.55;;;871.10;1971.20;;;;;;4957371;29;20039;-82
2023/08/18 11:10:23;;;;;;;9.82;5.35;;;871.30;2022.40;;;;;;4957663;29;20055;-81
2023/08/18 11:12:51;;;;;;;8.07;5.80;;;896.20;1996.80;;;;;;4957523;29;20034;-80
2023/08/18 11:15:23;;;;;;;7.90;5.07;;;896.10;1996.80;;;;;;4957037;29;20048;-83
2023/08/18 11:17:49;;;;;;;5.63;4.97;;;896.10;1996.80;;;;;;4957385;29;20035;-81
2023/08/18 11:20:16;;;;;;;10.65;5.53;;;871.30;1971.20;;;;;;4957257;29;20162;-84
2023/08/18 11:22:53;;;;;;;7.75;5.75;;;896.30;1996.80;;;;;;4956903;29;20039;-80
2023/08/18 11:25:22;;;;;;;7.43;5.22;;;;;;;;;;4957441;29;20030;-82
2023/08/18 11:27:48;;;;;;;7.97;4.90;;;;;;;;;;4957153;29;20035;-81
2023/08/18 11:30:15;;;;;;;9.63;5.13;;;;;;;;;;4956829;29;20023;-83
2023/08/18 11:32:41;;;;;;;7.90;5.22;;;921.70;1945.60;;;;;;4958764;28;20026;-83
2023/08/18 11:35:09;;;;;;;5.53;4.30;;;896.90;1945.60;;;;;;4957010;29;20035;-81
2023/08/18 11:37:44;;;;;;;6.82;4.40;;;896.90;1920.00;;;;;;4956581;29;20046;-82
2023/08/18 11:40:12;;;;;;;8.25;4.75;;;896.90;1920.00;;;;;;4956938;29;20059;-81
2023/08/18 11:42:51;;;;;;;6.38;3.95;;;896.90;1894.40;;;;;;4957935;28;20526;-80
2023/08/18 11:45:19;;;;;;;9.85;4.53;;;921.80;1920.00;;;;;;4956647;29;20066;-82
2023/08/18 11:48:05;;;;;;;6.65;4.55;;;922.00;1920.00;;;;;;4957097;29;20039;-80
2023/08/18 11:50:37;;;;;;;7.68;4.95;;;922.10;1868.80;;;;;;4956523;29;20034;-82
2023/08/18 11:53:03;;;;;;;;;;;922.10;1920.00;;;;;;4957054;29;20043;-81
2023/08/18 11:55:39;;;;;;;5.90;3.75;;;921.90;1843.20;;;;;;4956520;29;19906;-83
2023/08/18 11:58:13;;;;;;;8.00;5.40;;;922.00;1868.80;;;;;;4956526;29;20038;-81
2023/08/18 12:00:39;;;;;;;8.25;5.43;;;921.80;1868.80;;;;;;4956554;29;20066;-83
2023/08/18 12:03:07;;;;;;;8.43;5.50;;;921.90;1894.40;;;;;;4956531;29;20137;-80
2023/08/18 12:05:38;;;;;;;10.68;4.68;;;922.30;1894.40;;;;;;4957445;28;20031;-81
2023/08/18 12:08:08;;;;;;;8.38;5.53;;;922.30;1843.20;;;;;;4956502;29;20081;-80